Archival Weather

Chicago O'Hare International

Chicago, Illinois (KORD)

Report from: Saturday, March 5, 2022 11:59 PM CST
Current time: Saturday, February 4, 2023 10:30 PM CST

Current weather
Weather history
Weather forecast

Temperature12.2°C (54.0°F)
Dew point9.4°C (48.9°F)
Winds 10 kts (5.1 m/s, 11.5 mph) South-Southwest (200°)
Visibility10 mi. (16.1 km)
Clouds Few clouds 2,400 ft. (732 m)
Scattered clouds 5,500 ft. (1,676 m)
Ceiling: Broken clouds 7,000 ft. (2,134 m)
Overcast 15,000 ft. (4,572 m)
Altimeter29.65 in.Hg (1004 mB)
Precipitiation0.01 in. (0 mm)
Precip. events Rain ended 11:58 PM
Thunderstorm ended 11:58 PM
Relative humidity83 %
Density altitude147 ft. (45 m)
Remarks Corrected report
System requires maintenance
Automated weather observing station with precipitation discriminator
Lightning observed
Lightning observed: intra cloud, cloud to cloud, cloud to ground
Distant east south occasional distant southeast cumulonimbus clouds observed distant southeast moving east
Flight conditions Visual Meteorological Conditions
Raw dataKORD 060559Z COR 20010KT 10SM FEW024 SCT055 BKN070 OVC150 12/09 A2965 RMK AO2 LTG DSNT E-S RAE58 TSE58 OCNL LTGICCCCG DSNT SE CB DSNT SE MOV E P0001 T01220094 $
An unhandled exception has occurred. See browser dev tools for details. Reload 🗙